sensor_id;sensor_type;location;lat;lon;timestamp;temperature;humidity
9668;DHT22;4872;48.316;10.650;2023-02-19T05:06:10;8.50;99.90
9668;DHT22;4872;48.316;10.650;2023-02-19T05:08:37;8.50;99.90
9668;DHT22;4872;48.316;10.650;2023-02-19T05:11:06;8.50;99.90
9668;DHT22;4872;48.316;10.650;2023-02-19T05:13:35;8.60;99.90
9668;DHT22;4872;48.316;10.650;2023-02-19T05:16:04;8.60;99.90
9668;DHT22;4872;48.316;10.650;2023-02-19T05:18:31;8.60;99.90
9668;DHT22;4872;48.316;10.650;2023-02-19T05:20:59;8.60;99.90
9668;DHT22;4872;48.316;10.650;2023-02-19T05:23:27;8.60;99.90
9668;DHT22;4872;48.316;10.650;2023-02-19T05:25:54;8.60;99.90
9668;DHT22;4872;48.316;10.650;2023-02-19T05:28:21;8.90;99.90
9668;DHT22;4872;48.316;10.650;2023-02-19T05:30:54;8.70;99.90
9668;DHT22;4872;48.316;10.650;2023-02-19T05:33:23;9.00;99.90
9668;DHT22;4872;48.316;10.650;2023-02-19T05:35:51;8.60;99.90
9668;DHT22;4872;48.316;10.650;2023-02-19T05:38:18;8.60;99.90
9668;DHT22;4872;48.316;10.650;2023-02-19T05:40:46;8.60;99.90
9668;DHT22;4872;48.316;10.650;2023-02-19T05:43:13;8.90;99.90
9668;DHT22;4872;48.316;10.650;2023-02-19T05:45:40;8.50;99.90
9668;DHT22;4872;48.316;10.650;2023-02-19T05:48:07;8.60;99.90
9668;DHT22;4872;48.316;10.650;2023-02-19T05:50:35;8.90;99.90
9668;DHT22;4872;48.316;10.650;2023-02-19T05:53:03;9.70;99.90
9668;DHT22;4872;48.316;10.650;2023-02-19T05:55:34;8.50;99.90
9668;DHT22;4872;48.316;10.650;2023-02-19T05:58:03;8.80;99.90
9668;DHT22;4872;48.316;10.650;2023-02-19T06:00:31;8.60;99.90
9668;DHT22;4872;48.316;10.650;2023-02-19T06:02:59;9.00;99.90
9668;DHT22;4872;48.316;10.650;2023-02-19T06:05:26;8.70;99.90
9668;DHT22;4872;48.316;10.650;2023-02-19T06:07:52;8.50;99.90
9668;DHT22;4872;48.316;10.650;2023-02-19T06:10:19;8.60;99.90
9668;DHT22;4872;48.316;10.650;2023-02-19T06:12:46;8.60;99.90
9668;DHT22;4872;48.316;10.650;2023-02-19T06:15:14;8.50;99.90
9668;DHT22;4872;48.316;10.650;2023-02-19T06:17:41;8.80;99.90
9668;DHT22;4872;48.316;10.650;2023-02-19T06:20:08;8.80;99.90
9668;DHT22;4872;48.316;10.650;2023-02-19T06:22:35;8.60;99.90
9668;DHT22;4872;48.316;10.650;2023-02-19T06:25:02;8.60;99.90
9668;DHT22;4872;48.316;10.650;2023-02-19T06:27:30;8.60;99.90
9668;DHT22;4872;48.316;10.650;2023-02-19T06:29:56;8.50;99.90
9668;DHT22;4872;48.316;10.650;2023-02-19T06:32:25;8.50;99.90
9668;DHT22;4872;48.316;10.650;2023-02-19T06:34:51;8.60;99.90
9668;DHT22;4872;48.316;10.650;2023-02-19T06:37:18;8.60;99.90
9668;DHT22;4872;48.316;10.650;2023-02-19T06:39:45;9.70;99.90
9668;DHT22;4872;48.316;10.650;2023-02-19T06:42:12;8.60;99.90
9668;DHT22;4872;48.316;10.650;2023-02-19T06:44:39;8.60;99.90
9668;DHT22;4872;48.316;10.650;2023-02-19T06:47:05;9.00;99.90
9668;DHT22;4872;48.316;10.650;2023-02-19T06:49:34;8.50;99.90
9668;DHT22;4872;48.316;10.650;2023-02-19T06:52:00;8.60;99.90
9668;DHT22;4872;48.316;10.650;2023-02-19T06:54:28;8.70;99.90
9668;DHT22;4872;48.316;10.650;2023-02-19T06:56:54;8.50;99.90
9668;DHT22;4872;48.316;10.650;2023-02-19T06:59:23;8.20;99.90
9668;DHT22;4872;48.316;10.650;2023-02-19T07:01:50;8.20;99.90
9668;DHT22;4872;48.316;10.650;2023-02-19T07:04:17;9.40;99.90
9668;DHT22;4872;48.316;10.650;2023-02-19T07:06:45;8.20;99.90
9668;DHT22;4872;48.316;10.650;2023-02-19T07:09:12;8.20;99.90
9668;DHT22;4872;48.316;10.650;2023-02-19T07:11:39;8.60;99.90
9668;DHT22;4872;48.316;10.650;2023-02-19T07:14:07;8.20;99.90
9668;DHT22;4872;48.316;10.650;2023-02-19T07:16:34;8.60;99.90
9668;DHT22;4872;48.316;10.650;2023-02-19T07:19:02;8.50;99.90
9668;DHT22;4872;48.316;10.650;2023-02-19T07:21:29;8.30;99.90
9668;DHT22;4872;48.316;10.650;2023-02-19T07:23:57;8.30;99.90
9668;DHT22;4872;48.316;10.650;2023-02-19T07:26:24;8.30;99.90
9668;DHT22;4872;48.316;10.650;2023-02-19T07:28:51;8.30;99.90
9668;DHT22;4872;48.316;10.650;2023-02-19T07:31:19;8.50;99.90
9668;DHT22;4872;48.316;10.650;2023-02-19T07:33:47;8.30;99.90
9668;DHT22;4872;48.316;10.650;2023-02-19T07:36:15;8.20;99.90
9668;DHT22;4872;48.316;10.650;2023-02-19T07:38:42;8.20;99.90
9668;DHT22;4872;48.316;10.650;2023-02-19T07:41:11;8.40;99.90
9668;DHT22;4872;48.316;10.650;2023-02-19T07:43:38;8.30;99.90
9668;DHT22;4872;48.316;10.650;2023-02-19T07:46:06;8.20;99.90
9668;DHT22;4872;48.316;10.650;2023-02-19T07:48:33;8.20;99.90
9668;DHT22;4872;48.316;10.650;2023-02-19T07:51:01;8.20;99.90
9668;DHT22;4872;48.316;10.650;2023-02-19T07:53:29;8.20;99.90
9668;DHT22;4872;48.316;10.650;2023-02-19T07:55:58;8.20;99.90
9668;DHT22;4872;48.316;10.650;2023-02-19T07:58:27;8.30;99.90
9668;DHT22;4872;48.316;10.650;2023-02-19T08:00:54;8.40;99.90
9668;DHT22;4872;48.316;10.650;2023-02-19T08:03:21;8.40;99.90
9668;DHT22;4872;48.316;10.650;2023-02-19T08:05:48;8.50;99.90
9668;DHT22;4872;48.316;10.650;2023-02-19T08:08:16;8.70;99.90
9668;DHT22;4872;48.316;10.650;2023-02-19T08:10:43;9.10;99.90
9668;DHT22;4872;48.316;10.650;2023-02-19T08:13:29;9.00;99.90
9668;DHT22;4872;48.316;10.650;2023-02-19T08:16:09;8.80;99.90
9668;DHT22;4872;48.316;10.650;2023-02-19T08:18:37;9.00;99.90
9668;DHT22;4872;48.316;10.650;2023-02-19T08:21:04;8.90;99.90
9668;DHT22;4872;48.316;10.650;2023-02-19T08:23:31;8.90;99.90
9668;DHT22;4872;48.316;10.650;2023-02-19T08:25:59;9.00;99.90
9668;DHT22;4872;48.316;10.650;2023-02-19T08:28:26;9.20;99.90
9668;DHT22;4872;48.316;10.650;2023-02-19T08:31:00;9.00;99.90
9668;DHT22;4872;48.316;10.650;2023-02-19T08:33:28;8.80;99.90
9668;DHT22;4872;48.316;10.650;2023-02-19T08:35:55;8.50;99.90
9668;DHT22;4872;48.316;10.650;2023-02-19T08:38:22;8.20;99.90
9668;DHT22;4872;48.316;10.650;2023-02-19T08:40:49;8.00;99.90
9668;DHT22;4872;48.316;10.650;2023-02-19T08:43:16;7.80;99.90
9668;DHT22;4872;48.316;10.650;2023-02-19T08:45:44;7.70;99.90
9668;DHT22;4872;48.316;10.650;2023-02-19T08:48:14;7.90;99.90
9668;DHT22;4872;48.316;10.650;2023-02-19T08:50:40;7.60;99.90
9668;DHT22;4872;48.316;10.650;2023-02-19T08:53:07;7.90;99.90
9668;DHT22;4872;48.316;10.650;2023-02-19T08:55:36;7.70;99.90
9668;DHT22;4872;48.316;10.650;2023-02-19T08:58:03;7.50;99.90
9668;DHT22;4872;48.316;10.650;2023-02-19T09:00:30;7.60;99.90
9668;DHT22;4872;48.316;10.650;2023-02-19T09:02:57;7.70;99.90
9668;DHT22;4872;48.316;10.650;2023-02-19T09:05:25;8.00;99.90
9668;DHT22;4872;48.316;10.650;2023-02-19T09:07:52;8.20;99.90
9668;DHT22;4872;48.316;10.650;2023-02-19T09:10:19;8.60;99.90
9668;DHT22;4872;48.316;10.650;2023-02-19T09:12:45;8.90;99.90
9668;DHT22;4872;48.316;10.650;2023-02-19T09:15:12;8.90;99.90
9668;DHT22;4872;48.316;10.650;2023-02-19T09:17:39;9.30;99.90
9668;DHT22;4872;48.316;10.650;2023-02-19T09:20:06;9.50;99.90
9668;DHT22;4872;48.316;10.650;2023-02-19T09:22:35;9.70;99.90
9668;DHT22;4872;48.316;10.650;2023-02-19T09:25:01;9.90;99.90
9668;DHT22;4872;48.316;10.650;2023-02-19T09:27:28;9.70;99.90
9668;DHT22;4872;48.316;10.650;2023-02-19T09:29:56;10.00;99.60
9668;DHT22;4872;48.316;10.650;2023-02-19T09:32:23;10.60;99.40
9668;DHT22;4872;48.316;10.650;2023-02-19T09:34:50;10.50;98.80
9668;DHT22;4872;48.316;10.650;2023-02-19T09:37:16;10.30;97.40
9668;DHT22;4872;48.316;10.650;2023-02-19T09:39:45;11.10;97.50
9668;DHT22;4872;48.316;10.650;2023-02-19T09:42:14;9.90;97.90
9668;DHT22;4872;48.316;10.650;2023-02-19T09:44:44;9.80;98.40
9668;DHT22;4872;48.316;10.650;2023-02-19T09:47:15;9.60;97.90
9668;DHT22;4872;48.316;10.650;2023-02-19T09:49:45;9.60;99.00
9668;DHT22;4872;48.316;10.650;2023-02-19T09:52:20;10.10;98.00
9668;DHT22;4872;48.316;10.650;2023-02-19T09:54:51;9.70;98.30
9668;DHT22;4872;48.316;10.650;2023-02-19T09:57:23;9.60;97.80
9668;DHT22;4872;48.316;10.650;2023-02-19T09:59:52;9.70;97.60
9668;DHT22;4872;48.316;10.650;2023-02-19T10:02:23;9.70;97.00
9668;DHT22;4872;48.316;10.650;2023-02-19T10:04:51;9.80;96.90
9668;DHT22;4872;48.316;10.650;2023-02-19T10:07:20;9.80;96.60
9668;DHT22;4872;48.316;10.650;2023-02-19T10:09:54;9.80;96.00
9668;DHT22;4872;48.316;10.650;2023-02-19T10:12:24;10.10;95.70
9668;DHT22;4872;48.316;10.650;2023-02-19T10:14:54;9.70;96.20
9668;DHT22;4872;48.316;10.650;2023-02-19T10:17:24;9.70;97.00
9668;DHT22;4872;48.316;10.650;2023-02-19T10:19:52;9.50;97.10
9668;DHT22;4872;48.316;10.650;2023-02-19T10:22:19;9.50;97.30
9668;DHT22;4872;48.316;10.650;2023-02-19T10:24:51;9.60;97.90
9668;DHT22;4872;48.316;10.650;2023-02-19T10:27:19;9.70;97.80
9668;DHT22;4872;48.316;10.650;2023-02-19T10:29:48;9.80;98.00
9668;DHT22;4872;48.316;10.650;2023-02-19T10:32:17;9.90;97.60
9668;DHT22;4872;48.316;10.650;2023-02-19T10:34:46;10.00;97.40
9668;DHT22;4872;48.316;10.650;2023-02-19T10:37:15;10.00;98.10
9668;DHT22;4872;48.316;10.650;2023-02-19T10:39:44;9.80;99.00
9668;DHT22;4872;48.316;10.650;2023-02-19T10:42:16;9.50;99.20
9668;DHT22;4872;48.316;10.650;2023-02-19T10:44:46;9.50;99.80
9668;DHT22;4872;48.316;10.650;2023-02-19T10:47:17;9.30;99.60
9668;DHT22;4872;48.316;10.650;2023-02-19T10:49:45;9.70;99.50
9668;DHT22;4872;48.316;10.650;2023-02-19T10:52:15;10.30;97.70
9668;DHT22;4872;48.316;10.650;2023-02-19T10:54:44;10.60;96.80
9668;DHT22;4872;48.316;10.650;2023-02-19T10:57:26;10.80;96.40
9668;DHT22;4872;48.316;10.650;2023-02-19T11:00:00;10.80;96.10
9668;DHT22;4872;48.316;10.650;2023-02-19T11:02:29;10.90;95.70
9668;DHT22;4872;48.316;10.650;2023-02-19T11:05:05;10.90;95.40
9668;DHT22;4872;48.316;10.650;2023-02-19T11:07:33;11.30;95.10
9668;DHT22;4872;48.316;10.650;2023-02-19T11:10:00;11.40;94.40
9668;DHT22;4872;48.316;10.650;2023-02-19T11:12:29;11.30;92.70
9668;DHT22;4872;48.316;10.650;2023-02-19T11:15:03;10.90;92.10
9668;DHT22;4872;48.316;10.650;2023-02-19T11:17:38;10.80;93.00
9668;DHT22;4872;48.316;10.650;2023-02-19T11:20:08;10.80;94.50
9668;DHT22;4872;48.316;10.650;2023-02-19T11:22:41;10.70;94.70
9668;DHT22;4872;48.316;10.650;2023-02-19T11:25:18;10.50;94.80
9668;DHT22;4872;48.316;10.650;2023-02-19T11:27:53;10.50;94.00
9668;DHT22;4872;48.316;10.650;2023-02-19T11:30:37;10.50;94.30
9668;DHT22;4872;48.316;10.650;2023-02-19T11:33:24;10.50;95.00
9668;DHT22;4872;48.316;10.650;2023-02-19T11:35:56;10.30;96.10
9668;DHT22;4872;48.316;10.650;2023-02-19T11:38:24;9.60;97.60
9668;DHT22;4872;48.316;10.650;2023-02-19T11:40:54;8.70;98.30
9668;DHT22;4872;48.316;10.650;2023-02-19T11:43:34;8.50;99.10
9668;DHT22;4872;48.316;10.650;2023-02-19T11:46:12;8.40;99.50
9668;DHT22;4872;48.316;10.650;2023-02-19T11:48:51;8.50;99.90
9668;DHT22;4872;48.316;10.650;2023-02-19T11:51:48;8.50;99.90
9668;DHT22;4872;48.316;10.650;2023-02-19T11:54:25;8.70;99.90
9668;DHT22;4872;48.316;10.650;2023-02-19T11:57:04;8.80;99.60
9668;DHT22;4872;48.316;10.650;2023-02-19T11:59:38;9.30;99.80
9668;DHT22;4872;48.316;10.650;2023-02-19T12:05:18;9.50;98.70
9668;DHT22;4872;48.316;10.650;2023-02-19T12:08:12;9.80;98.20
9668;DHT22;4872;48.316;10.650;2023-02-19T12:10:56;9.90;98.00
9668;DHT22;4872;48.316;10.650;2023-02-19T12:13:33;9.90;98.10
9668;DHT22;4872;48.316;10.650;2023-02-19T12:16:12;9.80;97.80
9668;DHT22;4872;48.316;10.650;2023-02-19T12:19:02;9.80;97.50
9668;DHT22;4872;48.316;10.650;2023-02-19T12:21:43;9.80;97.60
9668;DHT22;4872;48.316;10.650;2023-02-19T12:27:29;9.80;97.00
9668;DHT22;4872;48.316;10.650;2023-02-19T12:30:19;9.90;96.70
9668;DHT22;4872;48.316;10.650;2023-02-19T12:33:13;9.90;96.30
9668;DHT22;4872;48.316;10.650;2023-02-19T12:35:54;9.80;96.40
9668;DHT22;4872;48.316;10.650;2023-02-19T12:38:29;9.60;96.30
9668;DHT22;4872;48.316;10.650;2023-02-19T12:41:17;9.50;97.20
9668;DHT22;4872;48.316;10.650;2023-02-19T12:43:50;9.30;96.90
9668;DHT22;4872;48.316;10.650;2023-02-19T12:46:22;9.30;97.90
9668;DHT22;4872;48.316;10.650;2023-02-19T12:48:53;9.20;97.80
9668;DHT22;4872;48.316;10.650;2023-02-19T12:51:27;9.20;97.50
9668;DHT22;4872;48.316;10.650;2023-02-19T12:53:58;9.60;97.30
9668;DHT22;4872;48.316;10.650;2023-02-19T12:56:29;9.30;96.90
9668;DHT22;4872;48.316;10.650;2023-02-19T12:59:03;9.40;96.60
9668;DHT22;4872;48.316;10.650;2023-02-19T13:01:33;9.50;96.00
9668;DHT22;4872;48.316;10.650;2023-02-19T13:04:14;9.70;95.80
9668;DHT22;4872;48.316;10.650;2023-02-19T13:06:48;9.80;95.40
9668;DHT22;4872;48.316;10.650;2023-02-19T13:09:20;9.90;95.80
9668;DHT22;4872;48.316;10.650;2023-02-19T13:11:52;10.00;94.90
9668;DHT22;4872;48.316;10.650;2023-02-19T13:14:24;10.10;94.20
9668;DHT22;4872;48.316;10.650;2023-02-19T13:16:57;10.30;93.70
9668;DHT22;4872;48.316;10.650;2023-02-19T13:19:25;10.50;93.30
9668;DHT22;4872;48.316;10.650;2023-02-19T13:21:58;10.70;93.60
9668;DHT22;4872;48.316;10.650;2023-02-19T13:24:46;10.40;93.60
9668;DHT22;4872;48.316;10.650;2023-02-19T13:30:20;10.20;94.20
9668;DHT22;4872;48.316;10.650;2023-02-19T13:33:02;10.30;94.30
9668;DHT22;4872;48.316;10.650;2023-02-19T13:35:58;10.40;94.30
9668;DHT22;4872;48.316;10.650;2023-02-19T13:38:32;10.30;94.30
9668;DHT22;4872;48.316;10.650;2023-02-19T13:40:59;10.20;94.40
9668;DHT22;4872;48.316;10.650;2023-02-19T13:43:28;10.20;94.70
9668;DHT22;4872;48.316;10.650;2023-02-19T13:46:00;10.20;94.30
9668;DHT22;4872;48.316;10.650;2023-02-19T13:48:31;10.10;94.40
9668;DHT22;4872;48.316;10.650;2023-02-19T13:51:36;10.00;92.70
9668;DHT22;4872;48.316;10.650;2023-02-19T13:54:19;9.90;92.80
9668;DHT22;4872;48.316;10.650;2023-02-19T13:56:47;10.10;92.60
9668;DHT22;4872;48.316;10.650;2023-02-19T13:59:34;10.00;93.30
9668;DHT22;4872;48.316;10.650;2023-02-19T14:02:09;10.10;93.40
9668;DHT22;4872;48.316;10.650;2023-02-19T14:04:44;10.20;93.70
9668;DHT22;4872;48.316;10.650;2023-02-19T14:10:04;10.00;92.00
9668;DHT22;4872;48.316;10.650;2023-02-19T14:12:32;10.10;91.00
9668;DHT22;4872;48.316;10.650;2023-02-19T14:17:56;10.20;90.50
9668;DHT22;4872;48.316;10.650;2023-02-19T14:20:40;10.20;91.20
9668;DHT22;4872;48.316;10.650;2023-02-19T14:23:15;10.30;91.20
9668;DHT22;4872;48.316;10.650;2023-02-19T14:25:56;10.20;90.70
9668;DHT22;4872;48.316;10.650;2023-02-19T14:28:33;10.20;90.90
9668;DHT22;4872;48.316;10.650;2023-02-19T14:31:12;10.30;91.30
9668;DHT22;4872;48.316;10.650;2023-02-19T14:33:45;10.20;91.50
9668;DHT22;4872;48.316;10.650;2023-02-19T14:36:18;10.30;91.40
9668;DHT22;4872;48.316;10.650;2023-02-19T14:38:47;10.40;92.50
9668;DHT22;4872;48.316;10.650;2023-02-19T14:41:18;10.40;92.20
9668;DHT22;4872;48.316;10.650;2023-02-19T14:43:48;10.50;91.60
9668;DHT22;4872;48.316;10.650;2023-02-19T14:46:22;10.60;91.30
9668;DHT22;4872;48.316;10.650;2023-02-19T14:48:50;11.10;91.00
9668;DHT22;4872;48.316;10.650;2023-02-19T14:51:24;11.20;90.90
9668;DHT22;4872;48.316;10.650;2023-02-19T14:53:55;11.20;91.10
9668;DHT22;4872;48.316;10.650;2023-02-19T14:56:26;11.10;90.70
9668;DHT22;4872;48.316;10.650;2023-02-19T14:59:22;11.10;90.30
9668;DHT22;4872;48.316;10.650;2023-02-19T15:01:57;10.80;90.50
9668;DHT22;4872;48.316;10.650;2023-02-19T15:04:26;10.70;90.50
9668;DHT22;4872;48.316;10.650;2023-02-19T15:06:54;10.60;91.10
9668;DHT22;4872;48.316;10.650;2023-02-19T15:09:26;10.50;90.80
9668;DHT22;4872;48.316;10.650;2023-02-19T15:11:56;10.50;91.10
9668;DHT22;4872;48.316;10.650;2023-02-19T15:14:24;10.50;91.20
9668;DHT22;4872;48.316;10.650;2023-02-19T15:16:57;10.10;91.30
9668;DHT22;4872;48.316;10.650;2023-02-19T15:19:24;9.90;91.90
9668;DHT22;4872;48.316;10.650;2023-02-19T15:21:51;9.90;92.30
9668;DHT22;4872;48.316;10.650;2023-02-19T15:24:19;10.30;92.30
9668;DHT22;4872;48.316;10.650;2023-02-19T15:26:49;9.80;92.60
9668;DHT22;4872;48.316;10.650;2023-02-19T15:29:19;9.80;92.90
9668;DHT22;4872;48.316;10.650;2023-02-19T15:31:48;9.90;93.00
9668;DHT22;4872;48.316;10.650;2023-02-19T15:34:17;9.70;93.10
9668;DHT22;4872;48.316;10.650;2023-02-19T15:36:44;9.70;93.40
9668;DHT22;4872;48.316;10.650;2023-02-19T15:39:18;9.60;93.50
9668;DHT22;4872;48.316;10.650;2023-02-19T15:41:50;9.70;93.60
9668;DHT22;4872;48.316;10.650;2023-02-19T15:44:28;9.60;93.80
9668;DHT22;4872;48.316;10.650;2023-02-19T15:47:01;9.40;93.70
9668;DHT22;4872;48.316;10.650;2023-02-19T15:49:35;9.50;94.10
9668;DHT22;4872;48.316;10.650;2023-02-19T15:52:07;9.50;94.20
9668;DHT22;4872;48.316;10.650;2023-02-19T15:54:46;9.50;94.10
9668;DHT22;4872;48.316;10.650;2023-02-19T15:57:18;9.50;94.40
9668;DHT22;4872;48.316;10.650;2023-02-19T15:59:49;9.50;94.60
9668;DHT22;4872;48.316;10.650;2023-02-19T16:02:19;9.50;94.50
9668;DHT22;4872;48.316;10.650;2023-02-19T16:04:46;9.50;94.40
9668;DHT22;4872;48.316;10.650;2023-02-19T16:07:23;9.40;94.30
9668;DHT22;4872;48.316;10.650;2023-02-19T16:10:04;9.30;94.60
9668;DHT22;4872;48.316;10.650;2023-02-19T16:12:31;9.30;94.70
9668;DHT22;4872;48.316;10.650;2023-02-19T16:15:11;9.60;94.80
9668;DHT22;4872;48.316;10.650;2023-02-19T16:17:41;9.40;94.80
9668;DHT22;4872;48.316;10.650;2023-02-19T16:20:20;9.30;94.80
9668;DHT22;4872;48.316;10.650;2023-02-19T16:22:48;9.30;94.80
9668;DHT22;4872;48.316;10.650;2023-02-19T16:25:26;9.20;94.70
9668;DHT22;4872;48.316;10.650;2023-02-19T16:27:54;9.10;94.80
9668;DHT22;4872;48.316;10.650;2023-02-19T16:30:29;9.10;94.80
9668;DHT22;4872;48.316;10.650;2023-02-19T16:33:30;9.00;95.00
9668;DHT22;4872;48.316;10.650;2023-02-19T16:36:20;9.10;94.90
9668;DHT22;4872;48.316;10.650;2023-02-19T16:39:21;9.00;94.90
9668;DHT22;4872;48.316;10.650;2023-02-19T16:42:12;9.00;94.90
9668;DHT22;4872;48.316;10.650;2023-02-19T16:44:43;8.90;94.80
9668;DHT22;4872;48.316;10.650;2023-02-19T16:47:30;9.00;94.90
9668;DHT22;4872;48.316;10.650;2023-02-19T16:50:00;8.90;94.80
9668;DHT22;4872;48.316;10.650;2023-02-19T16:52:28;9.00;94.90
9668;DHT22;4872;48.316;10.650;2023-02-19T16:54:54;8.80;95.10
9668;DHT22;4872;48.316;10.650;2023-02-19T16:57:21;8.80;95.10
9668;DHT22;4872;48.316;10.650;2023-02-19T16:59:48;8.80;95.20
9668;DHT22;4872;48.316;10.650;2023-02-19T17:02:20;8.80;95.40
9668;DHT22;4872;48.316;10.650;2023-02-19T17:04:48;8.80;95.30
9668;DHT22;4872;48.316;10.650;2023-02-19T17:07:17;9.00;95.40
9668;DHT22;4872;48.316;10.650;2023-02-19T17:09:44;8.80;95.40
9668;DHT22;4872;48.316;10.650;2023-02-19T17:12:12;9.10;95.60
9668;DHT22;4872;48.316;10.650;2023-02-19T17:14:39;8.80;95.50
9668;DHT22;4872;48.316;10.650;2023-02-19T17:17:06;8.70;95.50
9668;DHT22;4872;48.316;10.650;2023-02-19T17:19:35;8.70;95.60
9668;DHT22;4872;48.316;10.650;2023-02-19T17:22:03;8.80;95.70
9668;DHT22;4872;48.316;10.650;2023-02-19T17:24:30;8.80;95.60
9668;DHT22;4872;48.316;10.650;2023-02-19T17:26:57;8.80;95.40
9668;DHT22;4872;48.316;10.650;2023-02-19T17:29:24;8.70;95.30
9668;DHT22;4872;48.316;10.650;2023-02-19T17:31:52;9.10;95.50
9668;DHT22;4872;48.316;10.650;2023-02-19T17:34:19;8.70;95.10
9668;DHT22;4872;48.316;10.650;2023-02-19T17:36:48;8.70;94.70
9668;DHT22;4872;48.316;10.650;2023-02-19T17:39:19;8.70;94.90
9668;DHT22;4872;48.316;10.650;2023-02-19T17:41:48;8.60;94.50
9668;DHT22;4872;48.316;10.650;2023-02-19T17:44:15;8.60;94.40
9668;DHT22;4872;48.316;10.650;2023-02-19T17:46:42;8.60;94.30
9668;DHT22;4872;48.316;10.650;2023-02-19T17:49:12;8.60;94.30
9668;DHT22;4872;48.316;10.650;2023-02-19T17:51:38;8.60;94.00
9668;DHT22;4872;48.316;10.650;2023-02-19T17:54:07;8.50;94.00
9668;DHT22;4872;48.316;10.650;2023-02-19T17:56:33;8.50;94.10
9668;DHT22;4872;48.316;10.650;2023-02-19T17:59:00;9.00;94.30
9668;DHT22;4872;48.316;10.650;2023-02-19T18:01:27;8.40;94.10
9668;DHT22;4872;48.316;10.650;2023-02-19T18:03:54;8.40;94.20
9668;DHT22;4872;48.316;10.650;2023-02-19T18:06:21;8.40;94.30
9668;DHT22;4872;48.316;10.650;2023-02-19T18:08:49;8.40;94.50
9668;DHT22;4872;48.316;10.650;2023-02-19T18:11:17;8.40;94.50
9668;DHT22;4872;48.316;10.650;2023-02-19T18:13:46;8.80;94.80
9668;DHT22;4872;48.316;10.650;2023-02-19T18:16:13;8.30;94.70
9668;DHT22;4872;48.316;10.650;2023-02-19T18:18:41;8.40;94.70
9668;DHT22;4872;48.316;10.650;2023-02-19T18:21:10;8.30;94.70
9668;DHT22;4872;48.316;10.650;2023-02-19T18:23:37;8.40;94.70
9668;DHT22;4872;48.316;10.650;2023-02-19T18:26:06;8.40;94.80
9668;DHT22;4872;48.316;10.650;2023-02-19T18:28:34;8.50;94.90
9668;DHT22;4872;48.316;10.650;2023-02-19T18:31:02;8.60;95.00
9668;DHT22;4872;48.316;10.650;2023-02-19T18:33:29;8.30;95.00
9668;DHT22;4872;48.316;10.650;2023-02-19T18:35:56;8.60;95.30
9668;DHT22;4872;48.316;10.650;2023-02-19T18:38:22;8.40;95.00
9668;DHT22;4872;48.316;10.650;2023-02-19T18:40:49;8.40;95.10
9668;DHT22;4872;48.316;10.650;2023-02-19T18:43:16;8.50;95.20
9668;DHT22;4872;48.316;10.650;2023-02-19T18:45:44;8.30;95.20
9668;DHT22;4872;48.316;10.650;2023-02-19T18:48:11;8.30;95.30
9668;DHT22;4872;48.316;10.650;2023-02-19T18:50:38;8.60;95.50
9668;DHT22;4872;48.316;10.650;2023-02-19T18:53:04;8.70;95.50
9668;DHT22;4872;48.316;10.650;2023-02-19T18:55:31;8.30;95.40
9668;DHT22;4872;48.316;10.650;2023-02-19T18:57:58;8.20;95.50
9668;DHT22;4872;48.316;10.650;2023-02-19T19:00:25;8.40;95.60
9668;DHT22;4872;48.316;10.650;2023-02-19T19:02:57;8.40;95.60
9668;DHT22;4872;48.316;10.650;2023-02-19T19:05:24;8.20;95.70
9668;DHT22;4872;48.316;10.650;2023-02-19T19:07:52;8.20;95.80
9668;DHT22;4872;48.316;10.650;2023-02-19T19:10:20;8.20;95.90
9668;DHT22;4872;48.316;10.650;2023-02-19T19:12:46;8.30;96.10
9668;DHT22;4872;48.316;10.650;2023-02-19T19:15:14;8.20;96.10
9668;DHT22;4872;48.316;10.650;2023-02-19T19:17:41;8.10;96.20
9668;DHT22;4872;48.316;10.650;2023-02-19T19:20:10;8.30;96.30
9668;DHT22;4872;48.316;10.650;2023-02-19T19:22:36;8.00;96.10
9668;DHT22;4872;48.316;10.650;2023-02-19T19:25:04;8.10;96.20
9668;DHT22;4872;48.316;10.650;2023-02-19T19:27:31;8.10;96.30
9668;DHT22;4872;48.316;10.650;2023-02-19T19:29:57;8.10;96.20
9668;DHT22;4872;48.316;10.650;2023-02-19T19:32:24;8.10;96.20
9668;DHT22;4872;48.316;10.650;2023-02-19T19:34:51;8.50;96.40
9668;DHT22;4872;48.316;10.650;2023-02-19T19:37:19;8.00;96.30
9668;DHT22;4872;48.316;10.650;2023-02-19T19:39:46;8.20;96.40
9668;DHT22;4872;48.316;10.650;2023-02-19T19:42:13;7.90;96.30
9668;DHT22;4872;48.316;10.650;2023-02-19T19:44:41;7.90;96.40
9668;DHT22;4872;48.316;10.650;2023-02-19T19:47:08;8.00;96.50
9668;DHT22;4872;48.316;10.650;2023-02-19T19:49:35;7.90;96.40
9668;DHT22;4872;48.316;10.650;2023-02-19T19:52:02;7.90;96.40
9668;DHT22;4872;48.316;10.650;2023-02-19T19:54:30;8.00;96.40
9668;DHT22;4872;48.316;10.650;2023-02-19T19:56:57;7.90;96.40
9668;DHT22;4872;48.316;10.650;2023-02-19T19:59:24;7.90;96.20
9668;DHT22;4872;48.316;10.650;2023-02-19T20:01:52;8.30;96.50
9668;DHT22;4872;48.316;10.650;2023-02-19T20:04:21;7.90;96.40
9668;DHT22;4872;48.316;10.650;2023-02-19T20:06:48;7.90;96.20
9668;DHT22;4872;48.316;10.650;2023-02-19T20:09:15;7.90;96.30
9668;DHT22;4872;48.316;10.650;2023-02-19T20:11:45;8.00;96.30
9668;DHT22;4872;48.316;10.650;2023-02-19T20:14:13;8.00;96.30
9668;DHT22;4872;48.316;10.650;2023-02-19T20:16:39;8.10;96.30
9668;DHT22;4872;48.316;10.650;2023-02-19T20:19:06;8.00;96.30
9668;DHT22;4872;48.316;10.650;2023-02-19T20:21:33;8.10;96.40
9668;DHT22;4872;48.316;10.650;2023-02-19T20:24:00;8.40;96.60
9668;DHT22;4872;48.316;10.650;2023-02-19T20:26:28;8.00;96.40
9668;DHT22;4872;48.316;10.650;2023-02-19T20:28:57;7.90;96.20
9668;DHT22;4872;48.316;10.650;2023-02-19T20:31:24;8.00;96.20
9668;DHT22;4872;48.316;10.650;2023-02-19T20:33:51;8.00;96.20
9668;DHT22;4872;48.316;10.650;2023-02-19T20:36:18;7.90;96.10
9668;DHT22;4872;48.316;10.650;2023-02-19T20:38:45;8.00;96.20
9668;DHT22;4872;48.316;10.650;2023-02-19T20:41:12;8.30;96.30
9668;DHT22;4872;48.316;10.650;2023-02-19T20:43:39;8.10;96.10
9668;DHT22;4872;48.316;10.650;2023-02-19T20:46:07;8.20;96.10
9668;DHT22;4872;48.316;10.650;2023-02-19T20:48:34;8.30;96.00
9668;DHT22;4872;48.316;10.650;2023-02-19T20:51:00;8.50;96.10
9668;DHT22;4872;48.316;10.650;2023-02-19T20:53:28;8.40;96.10
9668;DHT22;4872;48.316;10.650;2023-02-19T20:55:55;8.10;96.20
9668;DHT22;4872;48.316;10.650;2023-02-19T20:58:22;7.90;96.00
9668;DHT22;4872;48.316;10.650;2023-02-19T21:00:49;8.00;96.00
9668;DHT22;4872;48.316;10.650;2023-02-19T21:03:19;7.90;96.10
9668;DHT22;4872;48.316;10.650;2023-02-19T21:05:46;8.00;96.20
9668;DHT22;4872;48.316;10.650;2023-02-19T21:08:13;7.80;96.30
9668;DHT22;4872;48.316;10.650;2023-02-19T21:10:42;7.90;96.50
9668;DHT22;4872;48.316;10.650;2023-02-19T21:13:09;7.90;96.50
9668;DHT22;4872;48.316;10.650;2023-02-19T21:15:35;7.90;96.50
9668;DHT22;4872;48.316;10.650;2023-02-19T21:18:02;8.00;96.60
9668;DHT22;4872;48.316;10.650;2023-02-19T21:20:31;7.80;96.60
9668;DHT22;4872;48.316;10.650;2023-02-19T21:22:58;7.80;96.60
9668;DHT22;4872;48.316;10.650;2023-02-19T21:25:25;7.80;96.70
9668;DHT22;4872;48.316;10.650;2023-02-19T21:27:52;8.00;96.70
9668;DHT22;4872;48.316;10.650;2023-02-19T21:30:19;7.90;96.70
9668;DHT22;4872;48.316;10.650;2023-02-19T21:32:46;7.80;96.70
9668;DHT22;4872;48.316;10.650;2023-02-19T21:35:12;7.70;96.70
9668;DHT22;4872;48.316;10.650;2023-02-19T21:37:42;7.70;96.80
9668;DHT22;4872;48.316;10.650;2023-02-19T21:40:10;7.80;96.90